createdAt,value
2023-01-26T00:02:04.211Z,21.80
2023-01-26T00:04:31.495Z,27.48
2023-01-26T00:06:58.742Z,23.17
2023-01-26T00:09:26.301Z,22.77
2023-01-26T00:11:53.532Z,28.17
2023-01-26T00:14:20.868Z,23.73
2023-01-26T00:16:48.276Z,23.45
2023-01-26T00:19:15.595Z,32.00
2023-01-26T00:21:42.875Z,22.20
2023-01-26T00:26:51.208Z,24.70
2023-01-26T00:29:19.189Z,24.45
2023-01-26T00:31:46.596Z,21.92
2023-01-26T00:34:14.995Z,23.90
2023-01-26T00:36:42.486Z,23.67
2023-01-26T00:39:09.826Z,20.60
2023-01-26T00:41:55.582Z,18.98
2023-01-26T00:44:22.873Z,19.52
2023-01-26T00:46:50.483Z,21.50
2023-01-26T00:49:17.890Z,19.45
2023-01-26T00:51:45.279Z,19.35
2023-01-26T00:54:12.748Z,20.52
2023-01-26T00:56:40.178Z,20.13
2023-01-26T00:59:07.956Z,20.13
2023-01-26T01:01:35.369Z,18.42
2023-01-26T01:04:02.833Z,20.23
2023-01-26T01:06:30.190Z,17.65
2023-01-26T01:08:57.605Z,17.75
2023-01-26T01:11:25.080Z,20.10
2023-01-26T01:13:52.476Z,17.45
2023-01-26T01:16:20.113Z,15.90
2023-01-26T01:18:47.557Z,20.45
2023-01-26T01:21:16.867Z,18.08
2023-01-26T01:23:44.566Z,20.60
2023-01-26T01:26:12.930Z,16.55
2023-01-26T01:28:41.038Z,16.38
2023-01-26T01:31:11.484Z,18.08
2023-01-26T01:33:40.016Z,17.55
2023-01-26T01:36:10.798Z,18.33
2023-01-26T01:38:38.469Z,18.75
2023-01-26T01:41:06.432Z,14.00
2023-01-26T01:43:33.964Z,16.77
2023-01-26T01:46:03.808Z,15.80
2023-01-26T01:48:45.686Z,15.15
2023-01-26T01:51:19.813Z,15.13
2023-01-26T01:53:50.806Z,17.52
2023-01-26T01:56:23.555Z,16.17
2023-01-26T01:58:54.619Z,15.82
2023-01-26T02:01:22.336Z,19.33
2023-01-26T02:03:52.377Z,17.75
2023-01-26T02:06:22.770Z,17.38
2023-01-26T02:08:53.352Z,16.48
2023-01-26T02:11:36.704Z,13.18
2023-01-26T02:14:08.963Z,13.80
2023-01-26T02:16:40.066Z,17.48
2023-01-26T02:19:15.403Z,14.73
2023-01-26T02:21:45.003Z,16.50
2023-01-26T02:24:24.970Z,16.27
2023-01-26T02:26:54.969Z,20.17
2023-01-26T02:29:23.434Z,17.58
2023-01-26T02:31:53.700Z,19.20
2023-01-26T02:34:22.030Z,19.88
2023-01-26T02:37:00.185Z,20.17
2023-01-26T02:39:49.308Z,19.70
2023-01-26T02:42:35.809Z,20.58
2023-01-26T02:45:03.380Z,20.85
2023-01-26T02:47:30.863Z,20.40
2023-01-26T02:50:00.500Z,20.88
2023-01-26T02:52:31.897Z,24.38
2023-01-26T02:55:25.211Z,23.45
2023-01-26T02:57:56.233Z,23.63
2023-01-26T03:00:28.859Z,25.65
2023-01-26T03:02:59.420Z,21.35
2023-01-26T03:05:28.410Z,26.48
2023-01-26T03:07:56.370Z,25.45
2023-01-26T03:10:27.641Z,23.80
2023-01-26T03:12:55.148Z,27.52
2023-01-26T03:15:40.938Z,30.58
2023-01-26T03:18:29.287Z,26.60
2023-01-26T03:21:16.754Z,26.25
2023-01-26T03:24:02.844Z,27.30
2023-01-26T03:26:48.718Z,27.05
2023-01-26T03:29:16.629Z,29.63
2023-01-26T03:31:44.623Z,29.23
2023-01-26T03:34:12.426Z,21.65
2023-01-26T03:36:40.746Z,23.58
2023-01-26T03:39:33.081Z,25.63
2023-01-26T03:42:19.897Z,24.08
2023-01-26T03:45:06.179Z,21.63
2023-01-26T03:47:53.832Z,23.02
2023-01-26T03:50:39.967Z,24.25
2023-01-26T03:53:36.400Z,21.23
2023-01-26T03:56:33.936Z,29.70
2023-01-26T03:59:15.554Z,26.10
2023-01-26T04:02:05.222Z,29.30
2023-01-26T04:04:52.239Z,31.58
2023-01-26T04:07:42.255Z,23.77
2023-01-26T04:10:10.624Z,27.42
2023-01-26T04:12:38.099Z,29.25
2023-01-26T04:15:33.656Z,22.42
2023-01-26T04:18:25.912Z,28.10
2023-01-26T04:21:13.490Z,26.92
2023-01-26T04:23:43.327Z,29.33
2023-01-26T04:26:10.616Z,32.65
2023-01-26T04:28:38.616Z,26.70
2023-01-26T04:31:06.550Z,29.80
2023-01-26T04:33:36.463Z,28.67
2023-01-26T04:36:08.423Z,26.85
2023-01-26T04:38:39.652Z,23.30
2023-01-26T04:41:07.081Z,31.30
2023-01-26T18:08:49.302Z,31.10
2023-01-26T18:11:17.660Z,37.30
2023-01-26T18:13:45.259Z,32.72
2023-01-26T18:16:18.522Z,36.67
2023-01-26T18:18:46.355Z,31.67
2023-01-26T18:21:34.993Z,31.33
2023-01-26T18:24:03.990Z,29.40
2023-01-26T18:26:34.694Z,34.42
2023-01-26T18:29:03.363Z,28.05
2023-01-26T18:31:36.561Z,25.65
2023-01-26T18:34:04.691Z,24.60
2023-01-26T18:36:32.432Z,21.08
2023-01-26T18:39:05.411Z,20.80
2023-01-26T18:41:33.519Z,18.83
2023-01-26T18:44:03.040Z,20.80
2023-01-26T18:46:33.651Z,23.38
2023-01-26T18:49:01.190Z,19.67
2023-01-26T18:51:31.542Z,26.00
2023-01-26T18:53:59.389Z,23.83
2023-01-26T18:56:26.979Z,19.17
2023-01-26T18:58:54.561Z,16.10
2023-01-26T19:01:22.725Z,17.67
2023-01-26T19:03:55.279Z,18.25
2023-01-26T19:06:24.560Z,18.58
2023-01-26T19:08:58.891Z,18.85
2023-01-26T19:11:28.845Z,15.32
2023-01-26T19:13:56.200Z,19.80
2023-01-26T19:16:23.710Z,16.55
2023-01-26T19:18:52.086Z,14.05
2023-01-26T19:21:24.689Z,14.60
2023-01-26T19:23:54.660Z,14.38
2023-01-26T19:26:24.844Z,17.92
2023-01-26T19:28:54.528Z,17.17
2023-01-26T19:31:23.077Z,14.35
2023-01-26T19:33:53.159Z,17.17
2023-01-26T19:36:20.872Z,14.48
2023-01-26T19:38:48.420Z,16.30
2023-01-26T19:41:16.134Z,16.70
2023-01-26T19:43:44.578Z,18.77
2023-01-26T19:46:15.855Z,15.13
2023-01-26T19:48:43.729Z,15.70
2023-01-26T19:51:20.634Z,15.88
2023-01-26T19:53:50.219Z,19.13
2023-01-26T19:56:21.289Z,15.35
2023-01-26T19:58:53.819Z,15.77
2023-01-26T20:01:22.417Z,15.20
2023-01-26T20:03:58.946Z,19.08
2023-01-26T20:06:29.423Z,19.67
2023-01-26T20:08:57.443Z,18.77
2023-01-26T20:11:25.300Z,16.48
2023-01-26T20:14:01.158Z,16.25
2023-01-26T20:16:29.591Z,16.88
2023-01-26T20:18:57.646Z,18.10
2023-01-26T20:21:25.775Z,25.17
2023-01-26T20:23:55.618Z,16.95
2023-01-26T20:26:27.013Z,14.88
2023-01-26T20:28:57.667Z,17.88
2023-01-26T20:31:26.796Z,18.88
2023-01-26T20:33:54.516Z,18.67
2023-01-26T20:36:24.530Z,19.35
2023-01-26T20:38:52.299Z,19.92
2023-01-26T20:41:22.869Z,16.30
2023-01-26T20:43:59.094Z,18.75
2023-01-26T20:46:30.857Z,18.08
2023-01-26T20:48:58.095Z,21.67
2023-01-26T20:51:29.572Z,18.17
2023-01-26T20:53:57.836Z,17.77
2023-01-26T20:56:25.341Z,17.88
2023-01-26T20:58:54.564Z,17.42
2023-01-26T21:01:23.119Z,16.70
2023-01-26T21:03:50.798Z,21.17
2023-01-26T21:06:20.926Z,18.20
2023-01-26T21:08:50.121Z,19.38
2023-01-26T21:11:17.991Z,18.63
2023-01-26T21:13:45.557Z,19.73
2023-01-26T21:16:15.657Z,18.73
2023-01-26T21:18:43.982Z,18.77
2023-01-26T21:21:13.741Z,22.77
2023-01-26T21:23:41.621Z,20.27
2023-01-26T21:26:14.740Z,19.13
2023-01-26T21:28:42.281Z,19.83
2023-01-26T21:31:13.869Z,19.85
2023-01-26T21:33:44.957Z,20.98
2023-01-26T21:36:14.891Z,21.20
2023-01-26T21:38:43.908Z,18.35
2023-01-26T21:41:34.260Z,21.52
2023-01-26T21:44:04.344Z,20.25
2023-01-26T21:46:31.540Z,18.55
2023-01-26T21:48:59.154Z,19.42
2023-01-26T21:51:46.361Z,20.98
2023-01-26T21:54:14.906Z,22.05
2023-01-26T21:56:42.241Z,23.25
2023-01-26T21:59:14.618Z,20.30
2023-01-26T22:01:47.179Z,18.75
2023-01-26T22:04:18.848Z,20.65
2023-01-26T22:06:46.194Z,20.73
2023-01-26T22:09:16.330Z,21.45
2023-01-26T22:11:44.459Z,17.95
2023-01-26T22:14:26.125Z,20.27
2023-01-26T22:16:53.809Z,26.80
2023-01-26T22:19:21.041Z,25.95
2023-01-26T22:21:48.409Z,27.17
2023-01-26T22:24:16.042Z,24.63
2023-01-26T22:26:43.535Z,19.58
2023-01-26T22:29:12.827Z,20.20
2023-01-26T22:31:40.186Z,20.75
2023-01-26T22:34:07.732Z,18.15
2023-01-26T22:36:35.077Z,20.02
2023-01-26T22:39:02.302Z,20.40
2023-01-26T22:41:30.719Z,18.10
2023-01-26T22:43:59.518Z,19.13
2023-01-26T22:46:28.920Z,18.08
2023-01-26T22:48:57.474Z,19.00
2023-01-26T22:51:28.966Z,17.90
2023-01-26T22:53:58.259Z,22.38
2023-01-26T22:56:26.770Z,21.60
2023-01-26T22:58:59.360Z,22.20
2023-01-26T23:01:32.535Z,22.90
2023-01-26T23:04:01.559Z,27.15
2023-01-26T23:06:29.510Z,22.25
2023-01-26T23:08:58.501Z,26.30
2023-01-26T23:11:28.033Z,29.90
2023-01-26T23:13:56.600Z,24.58
2023-01-26T23:16:24.628Z,23.63
2023-01-26T23:18:53.909Z,27.33
2023-01-26T23:21:21.752Z,26.50
2023-01-26T23:23:49.199Z,29.17
2023-01-26T23:26:16.613Z,24.20
2023-01-26T23:28:44.906Z,26.92
2023-01-26T23:31:14.018Z,23.42
2023-01-26T23:33:41.877Z,25.08
2023-01-26T23:36:11.487Z,24.73
2023-01-26T23:38:39.031Z,24.30
2023-01-26T23:41:08.567Z,22.85
2023-01-26T23:43:35.901Z,23.50
2023-01-26T23:46:04.923Z,26.02
2023-01-26T23:48:32.339Z,28.88
2023-01-26T23:51:01.811Z,23.55
2023-01-26T23:53:30.765Z,26.23
2023-01-26T23:56:00.732Z,23.90
2023-01-26T23:58:27.974Z,25.02
